createdAt,value
2023-02-08T00:01:25.669Z,9.10
2023-02-08T00:03:53.204Z,7.18
2023-02-08T00:06:20.138Z,6.13
2023-02-08T00:08:47.215Z,6.80
2023-02-08T00:11:14.097Z,8.20
2023-02-08T00:13:42.400Z,8.20
2023-02-08T00:16:10.527Z,8.07
2023-02-08T00:18:37.415Z,9.32
2023-02-08T00:21:14.942Z,8.95
2023-02-08T00:23:42.356Z,8.13
2023-02-08T00:26:10.409Z,9.48
2023-02-08T00:28:37.429Z,9.15
2023-02-08T00:31:05.446Z,7.07
2023-02-08T00:33:32.715Z,8.05
2023-02-08T00:36:04.332Z,7.68
2023-02-08T00:38:32.178Z,9.18
2023-02-08T00:40:59.096Z,8.77
2023-02-08T00:43:26.083Z,9.32
2023-02-08T00:46:00.660Z,9.95
2023-02-08T00:48:28.820Z,9.40
2023-02-08T00:51:06.435Z,10.00
2023-02-08T00:53:42.566Z,9.27
2023-02-08T00:56:13.525Z,9.02
2023-02-08T00:58:41.652Z,7.53
2023-02-08T01:01:09.727Z,7.72
2023-02-08T01:03:40.942Z,8.52
2023-02-08T01:06:14.861Z,9.48
2023-02-08T01:08:41.815Z,8.32
2023-02-08T01:11:21.552Z,9.18
2023-02-08T01:13:49.819Z,9.10
2023-02-08T01:16:23.065Z,8.88
2023-02-08T01:18:54.058Z,7.18
2023-02-08T01:21:29.729Z,9.15
2023-02-08T01:23:57.258Z,7.80
2023-02-08T01:26:26.067Z,10.23
2023-02-08T01:28:55.417Z,9.50
2023-02-08T01:31:29.352Z,9.40
2023-02-08T01:33:58.978Z,10.50
2023-02-08T01:36:28.419Z,10.00
2023-02-08T01:38:55.735Z,7.88
2023-02-08T01:41:38.839Z,8.68
2023-02-08T01:44:11.810Z,10.60
2023-02-08T01:46:46.193Z,10.98
2023-02-08T01:49:28.545Z,11.18
2023-02-08T01:52:20.595Z,8.52
2023-02-08T01:55:12.673Z,10.23
2023-02-08T01:57:40.914Z,9.00
2023-02-08T02:00:17.704Z,9.25
2023-02-08T02:02:48.877Z,11.48
2023-02-08T02:05:23.767Z,11.20
2023-02-08T02:07:55.323Z,9.25
2023-02-08T02:10:34.068Z,13.07
2023-02-08T02:13:20.946Z,9.82
2023-02-08T02:15:50.062Z,8.70
2023-02-08T02:18:26.439Z,8.73
2023-02-08T02:21:44.944Z,10.77
2023-02-08T02:25:06.832Z,9.48
2023-02-08T02:28:28.148Z,9.65
2023-02-08T02:31:43.401Z,7.50
2023-02-08T02:34:31.268Z,9.90
2023-02-08T02:37:33.998Z,8.98
2023-02-08T02:40:19.525Z,8.70
2023-02-08T02:43:42.462Z,10.18
2023-02-08T02:46:42.719Z,8.40
2023-02-08T02:50:04.648Z,9.35
2023-02-08T02:52:54.456Z,9.60
2023-02-08T02:55:28.082Z,7.13
2023-02-08T02:58:00.444Z,8.95
2023-02-08T03:00:31.319Z,9.13
2023-02-08T03:02:59.043Z,9.20
2023-02-08T03:05:29.521Z,8.27
2023-02-08T03:08:28.983Z,8.60
2023-02-08T03:11:26.475Z,9.63
2023-02-08T03:14:29.036Z,9.82
2023-02-08T03:17:35.151Z,9.00
2023-02-08T03:20:30.638Z,9.52
2023-02-08T03:23:30.347Z,7.97
2023-02-08T03:26:17.102Z,9.18
2023-02-08T03:29:14.561Z,9.73
2023-02-08T03:31:59.642Z,9.40
2023-02-08T03:35:04.699Z,9.18
2023-02-08T03:37:54.762Z,8.05
2023-02-08T03:40:32.514Z,9.27
2023-02-08T03:43:11.787Z,9.55
2023-02-08T03:45:54.985Z,8.70
2023-02-08T03:48:26.916Z,9.20
2023-02-08T03:50:58.200Z,9.70
2023-02-08T03:53:28.291Z,10.27
2023-02-08T03:56:07.386Z,9.98
2023-02-08T03:59:18.705Z,9.98
2023-02-08T04:02:06.897Z,9.85
2023-02-08T04:04:44.720Z,7.88
2023-02-08T04:07:12.650Z,9.52
2023-02-08T04:09:39.727Z,8.20
2023-02-08T04:12:07.354Z,8.55
2023-02-08T04:14:34.235Z,9.27
2023-02-08T04:17:01.625Z,7.72
2023-02-08T04:19:28.761Z,9.07
2023-02-08T04:21:55.778Z,9.10
2023-02-08T04:24:22.744Z,9.25
2023-02-08T04:26:49.707Z,8.38
2023-02-08T04:29:16.595Z,9.90
2023-02-08T04:31:43.733Z,10.13
2023-02-08T04:34:10.698Z,10.27
2023-02-08T04:36:37.723Z,8.82
2023-02-08T04:39:04.602Z,9.15
2023-02-08T04:41:31.565Z,8.98
2023-02-08T04:43:58.439Z,8.35
2023-02-08T04:46:25.369Z,9.43
2023-02-08T04:48:52.292Z,9.32
2023-02-08T04:51:19.704Z,11.18
2023-02-08T04:53:46.577Z,8.50
2023-02-08T04:56:14.435Z,8.65
2023-02-08T04:58:41.457Z,8.95
2023-02-08T05:01:10.781Z,9.63
2023-02-08T05:03:37.820Z,9.90
2023-02-08T05:06:04.990Z,10.25
2023-02-08T05:08:31.854Z,10.35
2023-02-08T05:10:58.766Z,10.50
2023-02-08T05:13:25.629Z,7.00
2023-02-08T05:15:52.504Z,8.93
2023-02-08T05:18:19.837Z,10.70
2023-02-08T05:20:55.204Z,10.13
2023-02-08T05:23:22.098Z,9.93
2023-02-08T05:25:49.168Z,10.25
2023-02-08T05:28:16.630Z,10.35
2023-02-08T05:30:44.234Z,7.53
2023-02-08T05:33:11.104Z,8.63
2023-02-08T05:35:38.025Z,9.45
2023-02-08T05:38:05.043Z,11.35
2023-02-08T05:40:35.428Z,9.80
2023-02-08T05:43:02.701Z,9.27
2023-02-08T05:45:29.672Z,11.02
2023-02-08T05:47:56.640Z,9.05
2023-02-08T05:50:23.576Z,11.52
2023-02-08T05:52:50.667Z,12.32
2023-02-08T05:55:17.620Z,10.07
2023-02-08T05:57:44.491Z,7.75
2023-02-08T06:00:12.578Z,8.55
2023-02-08T06:02:39.447Z,9.95
2023-02-08T06:05:07.075Z,10.98
2023-02-08T06:07:34.008Z,9.32
2023-02-08T06:10:00.876Z,7.80
2023-02-08T06:12:27.755Z,9.15
2023-02-08T06:14:54.824Z,9.52
2023-02-08T06:17:21.783Z,8.65
2023-02-08T06:19:48.787Z,9.65
2023-02-08T06:22:15.674Z,10.15
2023-02-08T06:24:42.734Z,9.48
2023-02-08T06:27:09.595Z,8.90
2023-02-08T06:29:36.478Z,9.48
2023-02-08T06:32:03.558Z,10.63
2023-02-08T06:34:30.568Z,9.75
2023-02-08T06:36:59.672Z,10.68
2023-02-08T06:39:26.523Z,9.20
2023-02-08T06:41:53.461Z,8.32
2023-02-08T06:44:20.345Z,11.32
2023-02-08T06:46:47.367Z,12.32
2023-02-08T06:49:14.229Z,9.15
2023-02-08T06:51:41.429Z,10.73
2023-02-08T06:54:08.300Z,9.00
2023-02-08T06:56:35.370Z,10.38
2023-02-08T06:59:02.345Z,7.93
2023-02-08T07:01:29.322Z,8.77
2023-02-08T07:03:56.189Z,11.02
2023-02-08T07:06:23.185Z,11.35
2023-02-08T07:08:50.064Z,11.45
2023-02-08T07:11:20.451Z,10.18
2023-02-08T07:13:51.258Z,9.68
2023-02-08T07:16:20.339Z,9.82
2023-02-08T07:18:47.838Z,10.48
2023-02-08T07:21:15.163Z,10.00
2023-02-08T07:23:42.295Z,11.75
2023-02-08T07:26:14.312Z,11.48
2023-02-08T07:28:42.248Z,11.07
2023-02-08T07:31:14.787Z,10.57
2023-02-08T07:33:42.728Z,12.45
2023-02-08T07:36:11.126Z,10.77
2023-02-08T07:38:39.270Z,10.20
2023-02-08T07:41:11.967Z,11.32
2023-02-08T07:43:41.370Z,11.77
2023-02-08T07:46:20.649Z,9.52
2023-02-08T07:48:52.524Z,9.30
2023-02-08T07:51:19.860Z,10.45
2023-02-08T07:53:46.993Z,10.48
2023-02-08T07:56:13.892Z,12.63
2023-02-08T07:58:40.775Z,11.23
2023-02-08T08:01:23.487Z,11.95
2023-02-08T08:03:52.737Z,11.40
2023-02-08T08:06:22.684Z,12.18
2023-02-08T08:08:51.002Z,10.52
2023-02-08T08:11:20.644Z,13.85
2023-02-08T08:13:47.559Z,10.55
2023-02-08T08:16:16.016Z,13.57
2023-02-08T08:18:43.101Z,10.52
2023-02-08T08:21:10.529Z,12.27
2023-02-08T08:23:37.981Z,13.60
2023-02-08T08:26:19.182Z,11.95
2023-02-08T08:28:47.563Z,12.30
2023-02-08T08:31:21.717Z,8.88
2023-02-08T08:33:49.767Z,12.55
2023-02-08T08:36:16.832Z,9.25
2023-02-08T08:38:43.719Z,11.65
2023-02-08T08:41:20.966Z,10.50
2023-02-08T08:43:49.150Z,11.52
2023-02-08T08:46:16.689Z,12.32
2023-02-08T08:48:45.516Z,11.30
2023-02-08T08:51:13.990Z,11.60
2023-02-08T08:53:41.028Z,12.45
2023-02-08T08:56:08.152Z,11.43
2023-02-08T08:58:35.116Z,11.05
2023-02-08T09:03:34.656Z,9.80
2023-02-08T09:06:01.573Z,8.88
2023-02-08T09:08:28.454Z,9.75
2023-02-08T09:10:55.351Z,10.38
2023-02-08T09:13:22.198Z,11.23
2023-02-08T09:15:49.410Z,11.80
2023-02-08T09:18:16.783Z,10.73
2023-02-08T09:20:44.095Z,13.00
2023-02-08T09:23:11.602Z,11.70
2023-02-08T09:25:38.856Z,11.48
2023-02-08T09:28:06.024Z,11.05
2023-02-08T09:30:33.908Z,11.45
2023-02-08T09:33:00.802Z,12.38
2023-02-08T09:35:27.690Z,13.13
2023-02-08T09:37:57.938Z,10.05
2023-02-08T09:40:42.832Z,11.38
2023-02-08T09:43:45.756Z,11.02
2023-02-08T09:46:21.430Z,10.88
2023-02-08T09:48:54.388Z,10.60
2023-02-08T09:51:53.788Z,10.38
2023-02-08T09:54:40.128Z,11.50
2023-02-08T09:57:20.017Z,10.75
2023-02-08T10:00:10.877Z,10.93
2023-02-08T10:02:39.315Z,12.07
2023-02-08T10:05:13.200Z,11.77
2023-02-08T10:07:43.084Z,11.37
2023-02-08T10:10:32.188Z,10.37
2023-02-08T10:14:00.453Z,9.50
2023-02-08T10:17:21.598Z,9.93
2023-02-08T10:21:00.421Z,10.80
2023-02-08T10:24:37.344Z,9.27
2023-02-08T10:27:28.088Z,10.40
2023-02-08T10:30:54.529Z,9.07
2023-02-08T10:33:51.720Z,9.40
2023-02-08T10:36:32.061Z,11.40
2023-02-08T10:39:03.251Z,11.03
2023-02-08T10:41:37.372Z,10.30
2023-02-08T10:45:22.531Z,10.37
2023-02-08T10:47:58.535Z,8.60
2023-02-08T10:50:47.404Z,9.27
2023-02-08T10:53:20.241Z,9.93
2023-02-08T10:55:50.334Z,11.77
2023-02-08T10:58:21.955Z,10.13
2023-02-08T11:00:51.935Z,8.20
2023-02-08T11:03:26.258Z,8.67
2023-02-08T11:05:55.464Z,9.67
2023-02-08T11:08:28.671Z,9.27
2023-02-08T11:11:09.940Z,9.83
2023-02-08T11:13:51.348Z,8.47
2023-02-08T11:16:27.685Z,7.33
2023-02-08T11:19:05.276Z,9.43
2023-02-08T11:21:40.424Z,9.57
2023-02-08T11:24:16.081Z,9.70
2023-02-08T11:26:43.857Z,7.77
2023-02-08T11:29:17.263Z,9.80
2023-02-08T11:31:58.474Z,9.97
2023-02-08T11:34:39.144Z,7.80
2023-02-08T11:37:28.353Z,8.27
2023-02-08T11:39:59.528Z,8.83
2023-02-08T11:42:40.812Z,9.57
2023-02-08T11:45:19.132Z,9.10
2023-02-08T11:47:49.902Z,8.37
2023-02-08T11:50:56.105Z,9.50
2023-02-08T11:53:36.588Z,10.70
2023-02-08T11:56:23.655Z,8.93
2023-02-08T11:59:09.805Z,10.47
2023-02-08T12:01:40.460Z,9.10
2023-02-08T12:04:13.945Z,9.90
2023-02-08T12:07:17.414Z,10.17
2023-02-08T12:10:26.269Z,10.90
2023-02-08T12:13:28.153Z,8.70
2023-02-08T12:16:44.753Z,9.23
2023-02-08T12:20:32.162Z,9.80
2023-02-08T12:23:51.038Z,10.00
2023-02-08T12:26:35.030Z,9.70
2023-02-08T12:29:47.393Z,9.97
2023-02-08T12:33:46.662Z,8.80
2023-02-08T12:36:44.219Z,8.00
2023-02-08T12:40:10.176Z,8.97
2023-02-08T12:43:40.058Z,7.97
2023-02-08T12:47:05.415Z,8.23
2023-02-08T12:50:20.414Z,9.23
2023-02-08T12:53:21.356Z,8.90
2023-02-08T12:55:51.798Z,9.03
2023-02-08T12:58:46.387Z,9.30
2023-02-08T13:01:44.787Z,10.43
2023-02-08T13:04:26.185Z,10.23
2023-02-08T13:07:45.486Z,9.63
2023-02-08T13:10:34.584Z,8.93
2023-02-08T13:13:28.837Z,9.30
2023-02-08T13:16:10.164Z,8.33
2023-02-08T13:18:50.332Z,9.37
2023-02-08T13:21:28.536Z,8.37
2023-02-08T13:23:57.416Z,9.80
2023-02-08T13:26:31.421Z,8.53
2023-02-08T13:29:02.589Z,10.07
2023-02-08T13:31:42.183Z,7.60
2023-02-08T13:34:43.002Z,9.37
2023-02-08T13:37:29.566Z,10.20
2023-02-08T13:40:28.258Z,7.80
2023-02-08T13:43:36.037Z,9.57
2023-02-08T13:46:06.083Z,8.07
2023-02-08T13:48:55.100Z,8.43
2023-02-08T13:51:31.176Z,9.10
2023-02-08T13:53:57.995Z,9.83
2023-02-08T13:56:50.775Z,8.70
2023-02-08T13:59:38.348Z,9.10
2023-02-08T14:02:22.217Z,8.67
2023-02-08T14:05:17.696Z,8.10
2023-02-08T14:07:48.528Z,7.93
2023-02-08T14:10:38.838Z,9.13
2023-02-08T14:13:36.856Z,8.47
2023-02-08T14:16:35.712Z,7.10
2023-02-08T14:19:24.915Z,8.80
2023-02-08T14:22:12.814Z,8.60
2023-02-08T14:24:49.451Z,7.43
2023-02-08T14:27:42.606Z,8.30
2023-02-08T14:30:18.578Z,7.60
2023-02-08T14:33:09.829Z,8.30
2023-02-08T14:35:58.114Z,8.70
2023-02-08T14:38:24.926Z,8.43
2023-02-08T14:41:00.896Z,6.33
2023-02-08T14:43:40.979Z,7.47
2023-02-08T14:46:39.716Z,7.90
2023-02-08T14:49:17.105Z,8.73
2023-02-08T14:52:20.023Z,9.70
2023-02-08T14:55:21.566Z,9.20
2023-02-08T14:57:49.563Z,9.13
2023-02-08T15:00:25.694Z,10.13
2023-02-08T15:02:56.102Z,10.40
2023-02-08T15:05:35.191Z,10.37
2023-02-08T15:08:03.538Z,9.37
2023-02-08T15:10:34.964Z,9.00
2023-02-08T15:13:07.824Z,9.77
2023-02-08T15:15:45.721Z,8.80
2023-02-08T15:18:30.333Z,8.77
2023-02-08T15:21:19.303Z,9.10
2023-02-08T15:24:13.311Z,9.80
2023-02-08T15:26:56.362Z,9.17
2023-02-08T15:29:42.914Z,8.40
2023-02-08T15:32:20.231Z,9.20
2023-02-08T15:34:57.292Z,8.40
2023-02-08T15:37:26.420Z,8.65
2023-02-08T15:39:59.803Z,8.37
2023-02-08T15:42:33.019Z,9.00
2023-02-08T15:45:02.568Z,7.63
2023-02-08T15:47:36.055Z,7.57
2023-02-08T15:50:14.790Z,6.32
2023-02-08T15:52:42.451Z,8.00
2023-02-08T15:55:16.935Z,8.75
2023-02-08T15:57:59.173Z,7.82
2023-02-08T16:00:34.771Z,7.28
2023-02-08T16:03:24.843Z,8.13
2023-02-08T16:06:04.753Z,8.40
2023-02-08T16:08:37.802Z,8.50
2023-02-08T16:11:20.888Z,8.25
2023-02-08T16:13:54.472Z,7.10
2023-02-08T16:16:37.885Z,7.95
2023-02-08T16:19:31.473Z,9.20
2023-02-08T16:22:31.817Z,10.38
2023-02-08T16:25:36.214Z,8.23
2023-02-08T16:28:06.017Z,8.30
2023-02-08T16:30:34.097Z,7.93
2023-02-08T16:33:08.778Z,8.23
2023-02-08T16:35:40.003Z,8.55
2023-02-08T16:38:10.336Z,8.20
2023-02-08T16:40:51.556Z,10.63
2023-02-08T16:43:35.000Z,9.80
2023-02-08T16:46:11.018Z,9.68
2023-02-08T16:48:53.915Z,8.75
2023-02-08T16:51:27.539Z,7.80
2023-02-08T16:54:03.343Z,8.45
2023-02-08T16:56:30.343Z,8.60
2023-02-08T16:58:57.183Z,10.25
2023-02-08T17:01:24.445Z,10.20
2023-02-08T17:03:52.766Z,11.05
2023-02-08T17:06:35.920Z,13.63
2023-02-08T17:09:08.034Z,11.77
2023-02-08T17:11:36.828Z,15.00
2023-02-08T17:14:05.368Z,14.63
2023-02-08T17:16:36.101Z,16.80
2023-02-08T17:19:04.653Z,11.00
2023-02-08T17:21:31.670Z,13.07
2023-02-08T17:23:59.533Z,12.20
2023-02-08T17:26:40.723Z,19.15
2023-02-08T17:29:08.184Z,12.57
2023-02-08T17:31:35.720Z,15.00
2023-02-08T17:34:05.701Z,12.07
2023-02-08T17:36:36.965Z,9.63
2023-02-08T17:39:06.250Z,16.58
2023-02-08T17:41:33.337Z,15.52
2023-02-08T17:44:00.245Z,13.57
2023-02-08T17:46:32.414Z,11.10
2023-02-08T17:49:01.448Z,12.23
2023-02-08T17:51:29.094Z,11.90
2023-02-08T17:53:56.302Z,14.40
2023-02-08T17:56:28.445Z,12.95
2023-02-08T17:58:56.226Z,12.57
2023-02-08T18:01:27.139Z,12.02
2023-02-08T18:03:55.183Z,10.90
2023-02-08T18:06:24.896Z,12.18
2023-02-08T18:08:54.722Z,13.05
2023-02-08T18:11:23.240Z,12.75
2023-02-08T18:13:53.523Z,11.88
2023-02-08T18:16:26.311Z,11.35
2023-02-08T18:18:59.239Z,12.88
2023-02-08T18:21:26.641Z,11.95
2023-02-08T18:23:55.249Z,13.45
2023-02-08T18:26:24.572Z,13.15
2023-02-08T18:28:52.306Z,11.57
2023-02-08T18:31:21.118Z,11.23
2023-02-08T18:33:50.717Z,12.52
2023-02-08T18:36:20.443Z,13.55
2023-02-08T18:38:51.995Z,11.23
2023-02-08T18:41:30.483Z,10.70
2023-02-08T18:43:59.202Z,11.10
2023-02-08T18:46:28.679Z,10.85
2023-02-08T18:48:55.973Z,14.10
2023-02-08T18:51:26.393Z,13.75
2023-02-08T18:53:55.786Z,10.57
2023-02-08T18:56:27.147Z,13.07
2023-02-08T18:58:58.628Z,16.35
2023-02-08T19:01:26.216Z,19.20
2023-02-08T19:03:53.982Z,16.40
2023-02-08T19:06:28.456Z,11.95
2023-02-08T19:08:59.466Z,10.45
2023-02-08T19:11:35.984Z,10.95
2023-02-08T19:14:12.172Z,13.07
2023-02-08T19:16:42.848Z,17.25
2023-02-08T19:19:10.989Z,14.80
2023-02-08T19:21:39.408Z,11.88
2023-02-08T19:24:06.886Z,13.75
2023-02-08T19:26:39.723Z,11.68
2023-02-08T19:29:13.891Z,12.80
2023-02-08T19:31:42.352Z,12.38
2023-02-08T19:34:12.076Z,11.30
2023-02-08T19:36:51.943Z,11.63
2023-02-08T19:39:25.903Z,13.10
2023-02-08T19:41:54.559Z,12.38
2023-02-08T19:44:22.495Z,12.98
2023-02-08T19:46:53.995Z,17.98
2023-02-08T19:49:23.616Z,15.10
2023-02-08T19:51:50.500Z,12.00
2023-02-08T19:54:19.864Z,12.13
2023-02-08T19:56:50.252Z,11.93
2023-02-08T19:59:26.777Z,13.80
2023-02-08T20:01:55.390Z,15.30
2023-02-08T20:04:23.635Z,11.35
2023-02-08T20:06:54.021Z,12.05
2023-02-08T20:09:21.788Z,9.50
2023-02-08T20:11:57.285Z,10.82
2023-02-08T20:14:32.692Z,11.57
2023-02-08T20:17:02.142Z,12.55
2023-02-08T20:19:29.563Z,10.57
2023-02-08T20:21:56.532Z,12.38
2023-02-08T20:24:23.562Z,13.02
2023-02-08T20:26:50.976Z,12.20
2023-02-08T20:29:19.024Z,10.82
2023-02-08T20:31:51.779Z,11.02
2023-02-08T20:34:19.040Z,12.52
2023-02-08T20:37:04.429Z,11.20
2023-02-08T20:39:34.376Z,17.35
2023-02-08T20:42:01.335Z,14.40
2023-02-08T20:44:28.411Z,17.80
2023-02-08T20:46:55.408Z,21.13
2023-02-08T20:49:25.393Z,18.20
2023-02-08T20:51:54.801Z,12.93
2023-02-08T20:54:26.316Z,24.63
2023-02-08T20:56:54.301Z,17.63
2023-02-08T20:59:22.279Z,13.60
2023-02-08T21:01:50.104Z,28.33
2023-02-08T21:04:19.627Z,15.23
2023-02-08T21:06:46.547Z,13.90
2023-02-08T21:09:17.592Z,9.30
2023-02-08T21:11:47.061Z,10.25
2023-02-08T21:14:20.766Z,10.13
2023-02-08T21:16:56.201Z,11.18
2023-02-08T21:19:24.101Z,11.55
2023-02-08T21:21:58.518Z,9.30
2023-02-08T21:24:26.967Z,9.50
2023-02-08T21:26:56.349Z,9.55
2023-02-08T21:29:24.340Z,10.85
2023-02-08T21:31:53.831Z,9.93
2023-02-08T21:34:21.385Z,11.10
2023-02-08T21:36:48.726Z,8.20
2023-02-08T21:39:15.689Z,8.77
2023-02-08T21:41:42.657Z,9.15
2023-02-08T21:44:11.220Z,8.35
2023-02-08T21:46:38.119Z,8.95
2023-02-08T21:49:23.926Z,8.65
2023-02-08T21:52:09.995Z,5.15
2023-02-08T21:54:43.928Z,6.22
2023-02-08T21:57:25.813Z,7.70
2023-02-08T21:59:59.501Z,6.82
2023-02-08T22:02:30.353Z,6.13
2023-02-08T22:05:21.798Z,6.30
2023-02-08T22:07:54.846Z,8.20
2023-02-08T22:10:30.308Z,7.50
2023-02-08T22:12:58.403Z,8.18
2023-02-08T22:15:29.709Z,7.28
2023-02-08T22:18:01.588Z,7.72
2023-02-08T22:20:30.450Z,9.00
2023-02-08T22:22:57.410Z,8.43
2023-02-08T22:25:24.570Z,7.35
2023-02-08T22:27:52.550Z,6.88
2023-02-08T22:30:21.245Z,6.43
2023-02-08T22:32:49.220Z,7.00
2023-02-08T22:35:18.953Z,7.93
2023-02-08T22:37:46.190Z,6.32
2023-02-08T22:40:13.460Z,6.70
2023-02-08T22:42:41.867Z,5.88
2023-02-08T22:45:10.348Z,6.70
2023-02-08T22:47:37.981Z,6.45
2023-02-08T22:50:09.440Z,5.82
2023-02-08T22:52:36.537Z,6.53
2023-02-08T22:55:05.554Z,8.02
2023-02-08T22:57:35.717Z,7.95
2023-02-08T23:00:07.481Z,6.65
2023-02-08T23:02:34.490Z,5.47
2023-02-08T23:05:01.463Z,5.85
2023-02-08T23:07:28.313Z,7.10
2023-02-08T23:09:55.205Z,7.00
2023-02-08T23:12:22.087Z,7.57
2023-02-08T23:14:49.728Z,6.63
2023-02-08T23:17:17.099Z,5.90
2023-02-08T23:19:44.126Z,5.75
2023-02-08T23:22:11.124Z,7.10
2023-02-08T23:24:37.988Z,7.53
2023-02-08T23:27:04.873Z,7.80
2023-02-08T23:29:31.908Z,8.23
2023-02-08T23:31:58.859Z,7.07
2023-02-08T23:34:25.842Z,6.85
2023-02-08T23:36:52.700Z,6.05
2023-02-08T23:39:19.572Z,5.72
2023-02-08T23:41:46.458Z,6.13
2023-02-08T23:44:13.382Z,5.80
2023-02-08T23:46:40.379Z,6.30
2023-02-08T23:49:07.302Z,6.63
2023-02-08T23:51:34.190Z,5.75
2023-02-08T23:54:01.118Z,5.90
2023-02-08T23:56:34.094Z,6.47
2023-02-08T23:59:01.286Z,6.63
